createdAt,value
2023-11-12T00:00:26.208Z,6.07
2023-11-12T00:02:52.841Z,6.27
2023-11-12T00:05:19.383Z,6.19
2023-11-12T00:07:46.116Z,6.26
2023-11-12T00:10:12.703Z,6.09
2023-11-12T00:12:42.178Z,5.88
2023-11-12T00:15:09.321Z,5.84
2023-11-12T00:17:35.819Z,5.80
2023-11-12T00:20:02.361Z,5.73
2023-11-12T00:22:28.847Z,5.80
2023-11-12T00:24:55.270Z,5.62
2023-11-12T00:27:21.817Z,5.60
2023-11-12T00:29:48.272Z,5.56
2023-11-12T00:32:14.787Z,5.56
2023-11-12T00:34:41.391Z,5.28
2023-11-12T00:37:07.888Z,5.42
2023-11-12T00:39:34.355Z,5.40
2023-11-12T00:42:00.784Z,5.44
2023-11-12T00:44:27.268Z,5.63
2023-11-12T00:46:53.757Z,5.73
2023-11-12T00:49:20.405Z,5.85
2023-11-12T00:51:47.636Z,5.85
2023-11-12T00:54:14.144Z,5.92
2023-11-12T00:56:40.599Z,5.94
2023-11-12T00:59:07.102Z,6.04
2023-11-12T01:01:33.661Z,6.23
2023-11-12T01:04:00.255Z,6.27
2023-11-12T01:06:26.769Z,6.22
2023-11-12T01:08:53.238Z,6.39
2023-11-12T01:11:19.797Z,6.48
2023-11-12T01:13:46.311Z,6.57
2023-11-12T01:16:13.008Z,6.52
2023-11-12T01:18:39.547Z,6.58
2023-11-12T01:21:06.078Z,6.59
2023-11-12T01:23:32.647Z,6.67
2023-11-12T01:25:59.086Z,6.62
2023-11-12T01:28:25.534Z,6.62
2023-11-12T01:30:51.978Z,6.50
2023-11-12T01:33:18.432Z,6.39
2023-11-12T01:35:45.052Z,6.43
2023-11-12T01:38:11.486Z,6.47
2023-11-12T01:40:38.437Z,6.43
2023-11-12T01:43:04.909Z,6.49
2023-11-12T01:45:31.365Z,6.46
2023-11-12T01:47:58.266Z,6.46
2023-11-12T01:50:24.838Z,6.28
2023-11-12T01:52:51.438Z,6.34
2023-11-12T01:55:21.922Z,6.37
2023-11-12T01:57:49.104Z,6.23
2023-11-12T02:00:15.857Z,6.28
2023-11-12T02:02:43.127Z,6.33
2023-11-12T02:05:09.619Z,6.44
2023-11-12T02:07:37.470Z,6.51
2023-11-12T02:10:05.140Z,6.45
2023-11-12T02:12:31.719Z,6.47
2023-11-12T02:14:58.215Z,6.40
2023-11-12T02:17:25.002Z,6.46
2023-11-12T02:19:51.464Z,6.44
2023-11-12T02:22:17.953Z,6.49
2023-11-12T02:24:44.430Z,6.51
2023-11-12T02:27:10.951Z,6.56
2023-11-12T02:29:37.404Z,6.63
2023-11-12T02:32:04.011Z,6.56
2023-11-12T02:34:30.458Z,6.58
2023-11-12T02:36:56.923Z,6.37
2023-11-12T02:39:23.373Z,6.31
2023-11-12T02:41:49.845Z,6.30
2023-11-12T02:44:16.282Z,6.43
2023-11-12T02:46:42.776Z,6.50
2023-11-12T02:49:23.297Z,6.43
2023-11-12T02:51:49.740Z,6.51
2023-11-12T02:54:16.227Z,6.53
2023-11-12T02:56:42.699Z,6.54
2023-11-12T02:59:09.254Z,6.54
2023-11-12T03:01:35.736Z,6.52
2023-11-12T03:04:02.289Z,6.48
2023-11-12T03:06:28.871Z,6.42
2023-11-12T03:08:55.326Z,6.44
2023-11-12T03:11:21.769Z,6.47
2023-11-12T03:13:48.226Z,6.37
2023-11-12T03:16:14.994Z,6.28
2023-11-12T03:18:41.512Z,6.25
2023-11-12T03:21:10.808Z,6.19
2023-11-12T03:23:37.297Z,6.07
2023-11-12T03:26:03.804Z,6.08
2023-11-12T03:28:30.246Z,6.00
2023-11-12T03:30:56.811Z,6.19
2023-11-12T03:33:23.352Z,6.14
2023-11-12T03:35:49.948Z,6.21
2023-11-12T03:38:16.561Z,5.99
2023-11-12T03:40:43.019Z,6.04
2023-11-12T03:43:09.473Z,6.22
2023-11-12T03:45:36.192Z,6.10
2023-11-12T03:48:03.893Z,5.96
2023-11-12T03:50:30.496Z,6.01
2023-11-12T03:52:57.078Z,6.02
2023-11-12T03:55:23.498Z,6.08
2023-11-12T03:57:49.975Z,6.06
2023-11-12T04:00:16.689Z,6.13
2023-11-12T04:02:43.227Z,6.08
2023-11-12T04:05:09.834Z,6.06
2023-11-12T04:07:36.381Z,6.01
2023-11-12T04:10:02.940Z,6.02
2023-11-12T04:12:29.436Z,6.14
2023-11-12T04:14:55.886Z,6.19
2023-11-12T04:17:22.332Z,6.27
2023-11-12T04:19:48.771Z,6.15
2023-11-12T04:22:15.209Z,6.20
2023-11-12T04:24:41.709Z,6.20
2023-11-12T04:27:08.170Z,6.25
2023-11-12T04:29:34.790Z,6.23
2023-11-12T04:32:01.370Z,6.15
2023-11-12T04:34:28.088Z,6.09
2023-11-12T04:36:54.517Z,6.10
2023-11-12T04:39:20.962Z,6.05
2023-11-12T04:41:47.420Z,5.99
2023-11-12T04:44:13.865Z,5.87
2023-11-12T04:46:40.335Z,5.88
2023-11-12T04:49:06.926Z,5.92
2023-11-12T04:51:33.541Z,5.90
2023-11-12T04:54:00.145Z,5.91
2023-11-12T04:56:26.699Z,5.82
2023-11-12T04:58:53.133Z,5.89
2023-11-12T05:01:19.624Z,5.99
2023-11-12T05:03:46.168Z,5.91
2023-11-12T05:06:12.821Z,5.91
2023-11-12T05:08:39.344Z,5.78
2023-11-12T05:11:05.772Z,5.84
2023-11-12T05:13:32.272Z,5.83
2023-11-12T05:15:58.907Z,5.80
2023-11-12T05:18:25.413Z,5.86
2023-11-12T05:20:51.856Z,5.72
2023-11-12T05:23:18.344Z,5.86
2023-11-12T05:25:45.246Z,5.91
2023-11-12T05:28:11.884Z,5.92
2023-11-12T05:30:39.482Z,5.82
2023-11-12T05:33:06.107Z,5.80
2023-11-12T05:35:33.638Z,5.79
2023-11-12T05:38:00.083Z,5.73
2023-11-12T05:40:26.520Z,5.52
2023-11-12T05:42:52.981Z,5.60
2023-11-12T05:45:19.735Z,5.43
2023-11-12T05:47:46.433Z,5.35
2023-11-12T05:50:12.982Z,5.28
2023-11-12T05:52:39.432Z,5.42
2023-11-12T05:55:06.277Z,5.50
2023-11-12T05:57:32.801Z,5.53
2023-11-12T05:59:59.307Z,5.51
2023-11-12T06:02:25.750Z,5.43
2023-11-12T06:04:52.197Z,5.36
2023-11-12T06:07:18.623Z,5.43
2023-11-12T06:09:45.107Z,5.55
2023-11-12T06:12:11.616Z,5.60
2023-11-12T06:14:38.152Z,5.50
2023-11-12T06:17:04.786Z,5.53
2023-11-12T06:19:31.312Z,5.52
2023-11-12T06:21:57.921Z,5.57
2023-11-12T06:24:24.433Z,5.81
2023-11-12T06:26:50.954Z,5.80
2023-11-12T06:29:17.383Z,5.96
2023-11-12T06:31:43.850Z,5.95
2023-11-12T06:34:10.401Z,5.96
2023-11-12T06:36:36.957Z,5.96
2023-11-12T06:39:03.397Z,5.78
2023-11-12T06:41:29.885Z,5.69
2023-11-12T06:43:56.329Z,5.83
2023-11-12T06:46:22.802Z,6.01
2023-11-12T06:48:49.324Z,6.08
2023-11-12T06:51:25.752Z,6.07
2023-11-12T06:53:52.678Z,6.04
2023-11-12T06:56:19.234Z,5.80
2023-11-12T06:58:45.739Z,5.88
2023-11-12T07:01:12.272Z,5.83
2023-11-12T07:03:39.681Z,5.77
2023-11-12T07:06:06.492Z,5.92
2023-11-12T07:08:33.240Z,6.01
2023-11-12T07:10:59.682Z,6.09
2023-11-12T07:13:26.124Z,6.27
2023-11-12T07:15:52.678Z,6.28
2023-11-12T07:18:19.244Z,6.25
2023-11-12T07:20:45.775Z,6.52
2023-11-12T07:23:12.228Z,6.47
2023-11-12T07:25:38.675Z,6.64
2023-11-12T07:28:05.154Z,6.78
2023-11-12T07:30:31.633Z,6.85
2023-11-12T07:32:58.112Z,6.73
2023-11-12T07:35:24.585Z,6.90
2023-11-12T07:37:51.069Z,7.01
2023-11-12T07:40:17.510Z,6.94
2023-11-12T07:42:43.998Z,7.05
2023-11-12T07:45:13.927Z,7.00
2023-11-12T07:47:42.144Z,6.99
2023-11-12T07:50:09.160Z,6.93
2023-11-12T07:52:35.803Z,7.03
2023-11-12T07:55:03.061Z,7.01
2023-11-12T07:57:29.575Z,7.12
2023-11-12T07:59:56.026Z,7.05
2023-11-12T08:02:23.728Z,7.27
2023-11-12T08:04:50.204Z,7.20
2023-11-12T08:07:16.640Z,7.07
2023-11-12T08:09:46.291Z,7.07
2023-11-12T08:12:13.085Z,7.22
2023-11-12T08:14:39.532Z,7.39
2023-11-12T08:17:05.980Z,7.65
2023-11-12T08:19:32.419Z,7.99
2023-11-12T08:21:58.898Z,8.06
2023-11-12T08:24:25.358Z,8.11
2023-11-12T08:26:51.820Z,8.03
2023-11-12T08:29:18.261Z,8.18
2023-11-12T08:31:44.970Z,8.26
2023-11-12T08:34:11.464Z,8.34
2023-11-12T08:36:37.987Z,8.45
2023-11-12T08:39:04.609Z,8.39
2023-11-12T08:41:31.041Z,8.37
2023-11-12T08:43:57.542Z,8.17
2023-11-12T08:46:24.024Z,7.74
2023-11-12T08:48:50.555Z,7.40
2023-11-12T08:51:17.163Z,7.58
2023-11-12T08:53:43.675Z,7.72
2023-11-12T08:56:10.135Z,7.64
2023-11-12T08:58:36.749Z,7.73
2023-11-12T09:01:05.522Z,7.85
2023-11-12T09:03:32.097Z,7.79
2023-11-12T09:05:58.579Z,7.79
2023-11-12T09:08:25.046Z,7.50
2023-11-12T09:10:51.507Z,7.87
2023-11-12T09:13:17.980Z,8.09
2023-11-12T09:15:44.448Z,8.31
2023-11-12T09:18:13.167Z,8.54
2023-11-12T09:20:39.635Z,8.66
2023-11-12T09:23:06.081Z,8.74
2023-11-12T09:25:32.641Z,8.81
2023-11-12T09:27:59.120Z,8.83
2023-11-12T09:30:25.618Z,8.75
2023-11-12T09:32:52.183Z,8.72
2023-11-12T09:35:18.749Z,8.79
2023-11-12T09:37:45.217Z,8.99
2023-11-12T09:40:12.245Z,9.04
2023-11-12T09:42:39.944Z,9.16
2023-11-12T09:45:07.906Z,9.00
2023-11-12T09:47:56.122Z,8.97
2023-11-12T09:50:24.086Z,8.60
2023-11-12T09:52:51.988Z,8.48
2023-11-12T09:55:20.257Z,8.90
2023-11-12T09:57:48.047Z,9.12
2023-11-12T10:00:15.248Z,9.02
2023-11-12T10:02:41.739Z,8.81
2023-11-12T10:05:08.581Z,8.63
2023-11-12T10:07:35.025Z,8.78
2023-11-12T10:10:19.770Z,8.81
2023-11-12T10:12:46.347Z,8.85
2023-11-12T10:15:12.811Z,8.58
2023-11-12T10:17:46.364Z,8.48
2023-11-12T10:20:30.248Z,8.42
2023-11-12T10:22:56.835Z,8.65
2023-11-12T10:25:43.279Z,8.89
2023-11-12T10:28:11.838Z,9.27
2023-11-12T10:30:57.023Z,9.39
2023-11-12T10:33:23.788Z,9.38
2023-11-12T10:35:50.525Z,9.11
2023-11-12T10:38:17.648Z,9.25
2023-11-12T10:41:00.203Z,8.96
2023-11-12T10:43:26.663Z,8.99
2023-11-12T10:45:58.838Z,8.94
2023-11-12T10:48:38.697Z,9.16
2023-11-12T10:51:07.657Z,9.24
2023-11-12T10:53:38.032Z,9.23
2023-11-12T10:56:05.236Z,9.07
2023-11-12T10:58:32.657Z,9.14
2023-11-12T11:01:00.963Z,9.18
2023-11-12T11:03:29.181Z,9.19
2023-11-12T11:05:57.422Z,9.40
2023-11-12T11:08:27.203Z,9.37
2023-11-12T11:10:54.599Z,9.37
2023-11-12T11:13:21.499Z,9.41
2023-11-12T11:15:49.576Z,9.18
2023-11-12T11:18:34.513Z,9.35
2023-11-12T11:21:03.681Z,9.66
2023-11-12T11:23:43.030Z,9.38
2023-11-12T11:26:24.759Z,9.31
2023-11-12T11:29:06.481Z,9.25
2023-11-12T11:31:33.661Z,9.32
2023-11-12T11:34:00.877Z,9.35
2023-11-12T11:36:27.925Z,9.42
2023-11-12T11:39:03.458Z,9.41
2023-11-12T11:41:48.593Z,9.48
2023-11-12T11:44:41.855Z,9.54
2023-11-12T11:47:16.300Z,9.75
2023-11-12T11:49:46.786Z,9.78
2023-11-12T11:52:22.239Z,9.88
2023-11-12T11:55:02.036Z,9.99
2023-11-12T11:57:29.128Z,10.07
2023-11-12T11:59:59.834Z,10.04
2023-11-12T12:02:26.857Z,9.79
2023-11-12T12:04:58.291Z,9.93
2023-11-12T12:07:29.437Z,10.38
2023-11-12T12:09:59.268Z,10.26
2023-11-12T12:12:26.773Z,10.20
2023-11-12T12:14:53.293Z,10.16
2023-11-12T12:17:19.881Z,10.16
2023-11-12T12:19:52.568Z,9.87
2023-11-12T12:22:25.894Z,9.77
2023-11-12T12:24:54.772Z,9.48
2023-11-12T12:27:21.295Z,9.31
2023-11-12T12:29:48.420Z,9.38
2023-11-12T12:32:16.708Z,9.38
2023-11-12T12:34:43.148Z,9.22
2023-11-12T12:37:09.640Z,9.20
2023-11-12T12:39:51.425Z,9.34
2023-11-12T12:42:18.050Z,9.11
2023-11-12T12:44:48.607Z,8.99
2023-11-12T12:47:38.037Z,8.76
2023-11-12T12:50:17.889Z,8.74
2023-11-12T12:52:46.501Z,8.50
2023-11-12T12:55:16.685Z,8.42
2023-11-12T12:57:44.586Z,8.36
2023-11-12T13:00:11.625Z,8.30
2023-11-12T13:02:41.890Z,8.28
2023-11-12T13:05:10.069Z,8.24
2023-11-12T13:07:36.535Z,8.05
2023-11-12T13:10:03.230Z,8.18
2023-11-12T13:12:29.753Z,7.97
2023-11-12T13:14:56.250Z,8.11
2023-11-12T13:17:22.674Z,8.27
2023-11-12T13:19:49.391Z,8.56
2023-11-12T13:22:15.866Z,8.60
2023-11-12T13:24:42.610Z,8.77
2023-11-12T13:27:09.099Z,8.86
2023-11-12T13:29:35.598Z,8.94
2023-11-12T13:32:02.119Z,9.16
2023-11-12T13:34:28.585Z,9.17
2023-11-12T13:36:55.079Z,9.20
2023-11-12T13:39:21.562Z,9.31
2023-11-12T13:41:48.077Z,9.38
2023-11-12T13:44:14.560Z,9.11
2023-11-12T13:46:41.028Z,9.13
2023-11-12T13:49:07.607Z,8.95
2023-11-12T13:51:34.168Z,9.04
2023-11-12T13:54:00.605Z,9.25
2023-11-12T13:56:27.059Z,9.32
2023-11-12T13:58:53.497Z,9.26
2023-11-12T14:01:23.730Z,9.39
2023-11-12T14:03:50.706Z,9.47
2023-11-12T14:06:17.812Z,9.59
2023-11-12T14:08:44.376Z,9.76
2023-11-12T14:11:10.822Z,9.79
2023-11-12T14:13:37.239Z,9.51
2023-11-12T14:16:04.023Z,9.43
2023-11-12T14:18:30.572Z,9.44
2023-11-12T14:20:57.056Z,9.46
2023-11-12T14:23:23.478Z,9.38
2023-11-12T14:25:49.922Z,9.38
2023-11-12T14:28:16.348Z,9.39
2023-11-12T14:30:42.846Z,9.34
2023-11-12T14:33:09.363Z,9.36
2023-11-12T14:35:35.848Z,9.27
2023-11-12T14:38:02.674Z,8.94
2023-11-12T14:40:29.126Z,9.00
2023-11-12T14:42:55.617Z,8.84
2023-11-12T14:45:28.736Z,8.97
2023-11-12T14:47:57.587Z,8.90
2023-11-12T14:50:24.044Z,8.89
2023-11-12T14:52:50.615Z,8.96
2023-11-12T14:55:24.449Z,8.95
2023-11-12T14:57:52.707Z,8.87
2023-11-12T15:00:19.260Z,8.59
2023-11-12T15:02:46.691Z,8.49
2023-11-12T15:05:15.139Z,8.50
2023-11-12T15:07:41.549Z,8.48
2023-11-12T15:10:08.661Z,8.35
2023-11-12T15:12:35.313Z,8.37
2023-11-12T15:15:02.889Z,8.29
2023-11-12T15:17:31.384Z,8.24
2023-11-12T15:19:59.325Z,8.13
2023-11-12T15:22:25.754Z,8.26
2023-11-12T15:24:52.255Z,8.32
2023-11-12T15:27:18.768Z,8.37
2023-11-12T15:29:45.200Z,8.32
2023-11-12T15:32:11.653Z,8.32
2023-11-12T15:34:38.083Z,8.28
2023-11-12T15:37:04.973Z,8.34
2023-11-12T15:39:31.470Z,8.29
2023-11-12T15:41:57.900Z,8.31
2023-11-12T15:44:24.344Z,8.28
2023-11-12T15:46:53.757Z,8.31
2023-11-12T15:49:20.279Z,8.29
2023-11-12T15:51:46.740Z,8.24
2023-11-12T15:54:13.176Z,8.21
2023-11-12T15:56:39.627Z,8.19
2023-11-12T15:59:06.107Z,8.08
2023-11-12T16:01:32.662Z,7.92
2023-11-12T16:03:59.241Z,7.93
2023-11-12T16:06:25.766Z,7.83
2023-11-12T16:08:56.326Z,7.78
2023-11-12T16:11:23.334Z,7.75
2023-11-12T16:13:49.780Z,7.70
2023-11-12T16:16:16.254Z,7.75
2023-11-12T16:18:42.747Z,7.63
2023-11-12T16:21:09.238Z,7.64
2023-11-12T16:23:35.674Z,7.60
2023-11-12T16:26:02.119Z,7.50
2023-11-12T16:28:28.572Z,7.38
2023-11-12T16:30:55.129Z,7.29
2023-11-12T16:33:21.700Z,7.28
2023-11-12T16:35:48.159Z,7.22
2023-11-12T16:38:14.802Z,7.24
2023-11-12T16:40:41.353Z,7.21
2023-11-12T16:43:07.877Z,7.17
2023-11-12T16:45:34.346Z,7.23
2023-11-12T16:48:00.879Z,7.27
2023-11-12T16:50:27.350Z,7.13
2023-11-12T16:52:53.799Z,7.09
2023-11-12T16:55:20.257Z,7.02
2023-11-12T16:57:46.789Z,6.85
2023-11-12T17:00:13.603Z,6.73
2023-11-12T17:02:40.390Z,6.61
2023-11-12T17:05:07.189Z,6.53
2023-11-12T17:07:34.015Z,6.49
2023-11-12T17:10:00.528Z,6.44
2023-11-12T17:12:27.006Z,6.47
2023-11-12T17:14:53.464Z,6.49
2023-11-12T17:17:19.911Z,6.48
2023-11-12T17:19:46.348Z,6.50
2023-11-12T17:22:12.816Z,6.51
2023-11-12T17:24:39.446Z,6.51
2023-11-12T17:27:05.948Z,6.51
2023-11-12T17:29:32.414Z,6.52
2023-11-12T17:31:58.895Z,6.57
2023-11-12T17:34:25.341Z,6.39
2023-11-12T17:36:51.801Z,6.36
2023-11-12T17:39:18.253Z,6.37
2023-11-12T17:41:45.173Z,6.24
2023-11-12T17:44:11.617Z,6.15
2023-11-12T17:46:38.173Z,6.18
2023-11-12T17:49:04.698Z,6.47
2023-11-12T17:51:31.175Z,6.49
2023-11-12T17:53:57.613Z,6.34
2023-11-12T17:56:24.097Z,6.22
2023-11-12T17:58:50.529Z,6.25
2023-11-12T18:01:17.625Z,6.38
2023-11-12T18:03:44.265Z,6.46
2023-11-12T18:06:11.202Z,6.22
2023-11-12T18:08:37.784Z,6.13
2023-11-12T18:11:05.229Z,5.99
2023-11-12T18:13:34.304Z,5.83
2023-11-12T18:16:01.963Z,5.79
2023-11-12T18:18:28.511Z,5.51
2023-11-12T18:20:55.128Z,5.47
2023-11-12T18:23:21.846Z,5.32
2023-11-12T18:25:48.276Z,5.24
2023-11-12T18:28:14.729Z,5.17
2023-11-12T18:30:48.553Z,5.11
2023-11-12T18:33:16.223Z,4.95
2023-11-12T18:35:43.865Z,5.14
2023-11-12T18:38:12.357Z,5.01
2023-11-12T18:40:39.815Z,5.13
2023-11-12T18:43:06.304Z,5.01
2023-11-12T18:45:32.767Z,4.87
2023-11-12T18:47:59.693Z,4.82
2023-11-12T18:50:26.288Z,4.81
2023-11-12T18:52:52.728Z,4.99
2023-11-12T18:55:19.194Z,5.03
2023-11-12T18:57:46.115Z,5.00
2023-11-12T19:00:14.016Z,5.08
2023-11-12T19:02:40.963Z,5.11
2023-11-12T19:05:08.387Z,5.20
2023-11-12T19:07:35.492Z,5.06
2023-11-12T19:10:03.252Z,4.98
2023-11-12T19:12:29.736Z,4.96
2023-11-12T19:14:56.177Z,4.83
2023-11-12T19:17:22.696Z,4.63
2023-11-12T19:19:49.337Z,4.67
2023-11-12T19:22:15.823Z,4.51
2023-11-12T19:24:42.725Z,4.51
2023-11-12T19:27:09.296Z,4.48
2023-11-12T19:29:35.760Z,4.38
2023-11-12T19:32:02.350Z,4.35
2023-11-12T19:34:30.179Z,4.29
2023-11-12T19:36:57.710Z,4.23
2023-11-12T19:39:24.388Z,4.34
2023-11-12T19:41:51.065Z,4.25
2023-11-12T19:44:17.518Z,4.23
2023-11-12T19:46:44.556Z,4.22
2023-11-12T19:49:11.627Z,4.25
2023-11-12T19:51:41.945Z,4.23
2023-11-12T19:54:09.349Z,4.23
2023-11-12T19:56:35.774Z,4.24
2023-11-12T19:59:02.229Z,4.32
2023-11-12T20:01:29.392Z,4.31
2023-11-12T20:03:56.904Z,4.28
2023-11-12T20:06:24.115Z,4.27
2023-11-12T20:08:50.915Z,4.23
2023-11-12T20:11:19.791Z,4.12
2023-11-12T20:13:47.727Z,4.16
2023-11-12T20:16:19.875Z,4.29
2023-11-12T20:18:46.435Z,4.21
2023-11-12T20:21:13.031Z,4.03
2023-11-12T20:23:41.670Z,3.99
2023-11-12T20:26:08.201Z,4.07
2023-11-12T20:28:35.135Z,4.20
2023-11-12T20:31:02.211Z,4.17
2023-11-12T20:33:28.696Z,4.20
2023-11-12T20:35:55.655Z,4.17
2023-11-12T20:38:22.096Z,4.32
2023-11-12T20:40:48.508Z,4.29
2023-11-12T20:43:15.010Z,4.22
2023-11-12T20:45:41.827Z,4.15
2023-11-12T20:48:08.822Z,4.11
2023-11-12T20:50:36.700Z,4.13
2023-11-12T20:53:04.583Z,4.17
2023-11-12T20:55:31.023Z,4.08
2023-11-12T20:57:57.796Z,4.12
2023-11-12T21:00:24.318Z,4.12
2023-11-12T21:02:51.109Z,4.11
2023-11-12T21:05:18.076Z,4.10
2023-11-12T21:07:44.519Z,3.99
2023-11-12T21:10:11.003Z,3.97
2023-11-12T21:12:37.467Z,3.84
2023-11-12T21:15:04.482Z,3.91
2023-11-12T21:17:30.929Z,3.85
2023-11-12T21:19:57.391Z,3.82
2023-11-12T21:22:23.857Z,3.92
2023-11-12T21:24:50.318Z,3.94
2023-11-12T21:27:16.973Z,3.94
2023-11-12T21:29:43.431Z,3.99
2023-11-12T21:32:09.943Z,3.85
2023-11-12T21:34:37.756Z,4.04
2023-11-12T21:37:04.527Z,4.10
2023-11-12T21:39:30.973Z,3.88
2023-11-12T21:41:57.420Z,3.65
2023-11-12T21:44:23.996Z,3.80
2023-11-12T21:46:50.519Z,3.92
2023-11-12T21:49:17.099Z,3.99
2023-11-12T21:51:43.637Z,3.90
2023-11-12T21:54:10.066Z,4.01
2023-11-12T21:56:36.509Z,3.94
2023-11-12T21:59:03.365Z,3.92
2023-11-12T22:01:29.950Z,3.94
2023-11-12T22:03:56.530Z,4.02
2023-11-12T22:06:23.062Z,4.08
2023-11-12T22:08:49.489Z,3.95
2023-11-12T22:11:16.311Z,3.71
2023-11-12T22:13:42.742Z,3.62
2023-11-12T22:16:09.216Z,3.53
2023-11-12T22:18:35.696Z,3.48
2023-11-12T22:21:02.197Z,3.50
2023-11-12T22:23:28.645Z,3.49
2023-11-12T22:25:55.131Z,3.52
2023-11-12T22:28:21.728Z,3.54
2023-11-12T22:30:48.240Z,3.45
2023-11-12T22:33:14.726Z,3.37
2023-11-12T22:35:41.174Z,3.34
2023-11-12T22:38:07.624Z,3.23
2023-11-12T22:40:34.060Z,3.11
2023-11-12T22:43:00.606Z,3.12
2023-11-12T22:45:27.062Z,3.09
2023-11-12T22:47:53.609Z,3.14
2023-11-12T22:50:20.236Z,3.24
2023-11-12T22:52:46.710Z,3.29
2023-11-12T22:55:13.490Z,3.53
2023-11-12T22:57:40.560Z,3.55
2023-11-12T23:00:07.898Z,3.56
2023-11-12T23:02:34.438Z,3.40
2023-11-12T23:05:00.932Z,3.44
2023-11-12T23:07:27.394Z,3.44
2023-11-12T23:09:54.099Z,3.42
2023-11-12T23:12:20.560Z,3.50
2023-11-12T23:14:47.024Z,3.38
2023-11-12T23:17:13.510Z,3.34
2023-11-12T23:19:39.988Z,3.38
2023-11-12T23:22:06.503Z,3.35
2023-11-12T23:24:33.007Z,3.38
2023-11-12T23:26:59.517Z,3.20
2023-11-12T23:29:26.099Z,3.19
2023-11-12T23:31:52.628Z,3.20
2023-11-12T23:34:19.190Z,3.23
2023-11-12T23:36:45.679Z,3.25
2023-11-12T23:39:12.192Z,3.11
2023-11-12T23:41:38.637Z,3.14
2023-11-12T23:44:05.191Z,3.09
2023-11-12T23:46:31.702Z,3.11
2023-11-12T23:48:58.301Z,3.06
2023-11-12T23:51:24.767Z,3.16
2023-11-12T23:53:51.194Z,3.10
2023-11-12T23:56:17.663Z,3.10
2023-11-12T23:58:44.116Z,3.05
